createdAt,value
2022-08-22T00:00:01.243Z,73.3
2022-08-22T00:01:18.347Z,73.4
2022-08-22T00:02:34.467Z,73.4
2022-08-22T00:03:51.572Z,73.7
2022-08-22T00:05:08.676Z,73.8
2022-08-22T00:06:25.780Z,73.8
2022-08-22T00:07:42.884Z,74
2022-08-22T00:08:59.988Z,73.8
2022-08-22T00:10:17.092Z,74.5
2022-08-22T00:11:34.197Z,74.4
2022-08-22T00:12:51.301Z,74.4
2022-08-22T00:14:08.406Z,74.5
2022-08-22T00:15:25.511Z,74.3
2022-08-22T00:16:42.615Z,74.1
2022-08-22T00:17:59.719Z,74.2
2022-08-22T00:19:15.839Z,74.5
2022-08-22T00:20:32.943Z,74.7
2022-08-22T00:21:50.048Z,75
2022-08-22T00:23:07.152Z,75.2
2022-08-22T00:24:24.256Z,75.2
2022-08-22T00:25:41.361Z,75.3
2022-08-22T00:26:58.465Z,75.4
2022-08-22T00:28:15.569Z,75.4
2022-08-22T00:29:32.673Z,75.5
2022-08-22T00:30:49.777Z,75.5
2022-08-22T00:32:06.879Z,75.6
2022-08-22T00:33:23.984Z,75.6
2022-08-22T00:34:41.088Z,75.8
2022-08-22T00:35:57.208Z,76
2022-08-22T00:37:14.312Z,76.2
2022-08-22T00:38:31.416Z,76.2
2022-08-22T00:39:48.520Z,76.2
2022-08-22T00:41:05.624Z,76.4
2022-08-22T00:42:22.728Z,76.6
2022-08-22T00:43:39.833Z,76.8
2022-08-22T00:44:56.937Z,77
2022-08-22T00:46:14.041Z,77.1
2022-08-22T00:47:31.145Z,77
2022-08-22T00:48:48.249Z,76.9
2022-08-22T00:50:05.353Z,76.9
2022-08-22T00:51:22.457Z,77
2022-08-22T00:52:38.577Z,77.1
2022-08-22T00:53:55.681Z,77.1
2022-08-22T00:55:12.786Z,77.2
2022-08-22T00:56:29.890Z,77.3
2022-08-22T00:57:46.994Z,77.2
2022-08-22T00:59:04.098Z,77.3
2022-08-22T01:00:21.202Z,77.2
2022-08-22T01:01:38.306Z,76.9
2022-08-22T01:02:55.410Z,77
2022-08-22T01:04:12.514Z,77.3
2022-08-22T01:05:29.619Z,77.5
2022-08-22T01:06:46.723Z,77.7
2022-08-22T01:08:03.827Z,77.7
2022-08-22T01:09:19.947Z,77.6
2022-08-22T01:10:37.051Z,77.6
2022-08-22T01:11:54.156Z,77.6
2022-08-22T01:13:11.260Z,77.5
2022-08-22T01:14:28.365Z,77.5
2022-08-22T01:15:45.469Z,77.4
2022-08-22T01:17:02.573Z,77.2
2022-08-22T01:18:19.678Z,77.2
2022-08-22T01:19:36.782Z,77.1
2022-08-22T01:20:53.886Z,76.9
2022-08-22T01:22:10.990Z,76.7
2022-08-22T01:23:28.094Z,76.6
2022-08-22T01:24:45.198Z,76.7
2022-08-22T01:26:01.319Z,76.8
2022-08-22T01:27:18.423Z,77.1
2022-08-22T01:28:35.527Z,77.3
2022-08-22T01:29:52.631Z,77.3
2022-08-22T01:31:09.735Z,77.4
2022-08-22T01:32:26.839Z,77.4
2022-08-22T01:33:43.944Z,77.5
2022-08-22T01:35:01.048Z,77.7
2022-08-22T01:36:18.152Z,77.8
2022-08-22T01:37:35.256Z,78.3
2022-08-22T01:38:52.360Z,78.7
2022-08-22T01:40:09.464Z,78.9
2022-08-22T01:41:26.568Z,78.4
2022-08-22T01:42:42.689Z,78
2022-08-22T01:43:59.793Z,77.9
2022-08-22T01:45:16.897Z,78.1
2022-08-22T01:46:34.001Z,78.1
2022-08-22T01:47:51.105Z,77.9
2022-08-22T01:49:08.209Z,77.8
2022-08-22T01:50:25.314Z,77.7
2022-08-22T01:51:42.418Z,77.5
2022-08-22T01:52:59.523Z,77.4
2022-08-22T01:54:16.627Z,77.9
2022-08-22T01:55:33.731Z,78.6
2022-08-22T01:56:50.835Z,79
2022-08-22T01:58:07.939Z,79.3
2022-08-22T01:59:24.059Z,79.6
2022-08-22T02:00:41.163Z,79.8
2022-08-22T02:01:58.268Z,79.7
2022-08-22T02:03:15.372Z,78.8
2022-08-22T02:04:32.476Z,78.1
2022-08-22T02:05:49.580Z,78.2
2022-08-22T02:07:06.684Z,78.2
2022-08-22T02:08:23.788Z,78.5
2022-08-22T02:09:40.892Z,78.7
2022-08-22T02:10:57.996Z,78.9
2022-08-22T02:12:15.101Z,78.8
2022-08-22T02:13:32.205Z,78.9
2022-08-22T02:14:49.309Z,78.9
2022-08-22T02:16:05.429Z,79.1
2022-08-22T02:17:22.534Z,79.3
2022-08-22T02:18:39.638Z,79.5
2022-08-22T02:19:56.742Z,79.3
2022-08-22T02:21:13.846Z,79.2
2022-08-22T02:22:30.950Z,79.1
2022-08-22T02:23:48.055Z,79
2022-08-22T02:25:05.159Z,79.2
2022-08-22T02:26:22.263Z,79.2
2022-08-22T02:27:39.367Z,79.1
2022-08-22T02:28:56.471Z,79.3
2022-08-22T02:30:13.576Z,79.7
2022-08-22T02:31:30.680Z,79.8
2022-08-22T02:32:46.800Z,80
2022-08-22T02:34:03.904Z,80.3
2022-08-22T02:35:21.009Z,80.3
2022-08-22T02:36:38.113Z,80.5
2022-08-22T02:37:55.217Z,80.5
2022-08-22T02:39:12.321Z,80.5
2022-08-22T02:40:29.425Z,80.6
2022-08-22T02:41:46.529Z,80.7
2022-08-22T02:43:03.633Z,80.8
2022-08-22T02:44:20.737Z,80.7
2022-08-22T02:45:37.842Z,80.5
2022-08-22T02:46:54.946Z,80.4
2022-08-22T02:48:12.050Z,80.3
2022-08-22T02:49:28.171Z,80.2
2022-08-22T02:50:45.275Z,80.2
2022-08-22T02:52:02.379Z,80.2
2022-08-22T02:53:19.483Z,80.3
2022-08-22T02:54:36.587Z,80.3
2022-08-22T02:55:53.691Z,80.3
2022-08-22T02:57:10.796Z,80.3
2022-08-22T02:58:27.900Z,80.4
2022-08-22T02:59:45.004Z,80.6
2022-08-22T03:01:02.108Z,81.5
2022-08-22T03:02:19.212Z,81.8
2022-08-22T03:03:36.316Z,82.3
2022-08-22T03:04:53.421Z,81.1
2022-08-22T03:06:09.541Z,80.6
2022-08-22T03:07:26.645Z,80.3
2022-08-22T03:08:43.750Z,80.2
2022-08-22T03:10:00.854Z,80
2022-08-22T03:11:17.958Z,80
2022-08-22T03:12:35.062Z,80
2022-08-22T03:13:52.167Z,80.2
2022-08-22T03:15:09.271Z,80.3
2022-08-22T03:16:26.375Z,80.6
2022-08-22T03:17:43.480Z,80.8
2022-08-22T03:19:00.584Z,81
2022-08-22T03:20:17.689Z,81
2022-08-22T03:21:34.793Z,81.1
2022-08-22T03:22:50.914Z,81.4
2022-08-22T03:24:08.018Z,81.5
2022-08-22T03:25:25.122Z,81.5
2022-08-22T03:26:42.226Z,81.5
2022-08-22T03:27:59.331Z,81.6
2022-08-22T03:29:16.435Z,81.5
2022-08-22T03:30:33.540Z,81.6
2022-08-22T03:31:50.644Z,81.6
2022-08-22T03:33:07.749Z,81.5
2022-08-22T03:34:24.853Z,81.6
2022-08-22T03:35:41.957Z,81.5
2022-08-22T03:36:59.062Z,81.7
2022-08-22T03:38:16.166Z,81.6
2022-08-22T03:39:32.286Z,81.6
2022-08-22T03:40:49.390Z,81.4
2022-08-22T03:42:06.495Z,81.4
2022-08-22T03:43:23.599Z,81.6
2022-08-22T03:44:40.704Z,81.7
2022-08-22T03:45:57.808Z,81.9
2022-08-22T03:47:13.929Z,81.9
2022-08-22T03:48:31.033Z,81.9
2022-08-22T03:49:48.137Z,82.1
2022-08-22T03:51:05.242Z,82.2
2022-08-22T03:52:22.346Z,82.1
2022-08-22T03:53:39.451Z,82.1
2022-08-22T03:54:56.555Z,82.1
2022-08-22T03:56:13.659Z,82.1
2022-08-22T03:57:30.764Z,81.9
2022-08-22T03:58:47.868Z,82.1
2022-08-22T04:00:04.972Z,81.9
2022-08-22T04:01:22.077Z,82
2022-08-22T04:02:39.181Z,81.8
2022-08-22T04:03:55.302Z,81.6
2022-08-22T04:05:12.406Z,81.6
2022-08-22T04:06:29.511Z,81.4
2022-08-22T04:07:46.615Z,81.5
2022-08-22T04:09:03.719Z,81.5
2022-08-22T04:10:20.825Z,81.6
2022-08-22T04:11:37.929Z,81.6
2022-08-22T04:12:55.033Z,81.7
2022-08-22T04:14:12.138Z,81.7
2022-08-22T04:15:29.243Z,81.9
2022-08-22T04:16:46.347Z,82
2022-08-22T04:18:03.451Z,81.8
2022-08-22T04:19:20.556Z,81.6
2022-08-22T04:20:36.676Z,82.2
2022-08-22T04:21:53.781Z,82
2022-08-22T04:23:10.885Z,82.2
2022-08-22T04:24:27.989Z,82.6
2022-08-22T04:25:45.094Z,82.2
2022-08-22T04:27:02.198Z,82.1
2022-08-22T04:28:19.303Z,82.1
2022-08-22T04:29:36.407Z,81.6
2022-08-22T04:30:53.512Z,81.4
2022-08-22T04:32:10.616Z,81.3
2022-08-22T04:33:27.720Z,81.3
2022-08-22T04:34:44.825Z,81.5
2022-08-22T04:36:01.929Z,81.8
2022-08-22T04:37:18.050Z,81.8
2022-08-22T04:38:35.154Z,81.8
2022-08-22T04:39:52.259Z,81.7
2022-08-22T04:41:09.363Z,81.5
2022-08-22T04:42:26.467Z,81.4
2022-08-22T04:43:43.572Z,81.3
2022-08-22T04:45:00.676Z,81.3
2022-08-22T04:46:17.780Z,81.4
2022-08-22T04:47:34.885Z,81.6
2022-08-22T04:48:51.989Z,81.5
2022-08-22T04:50:09.094Z,81.4
2022-08-22T04:51:26.198Z,80.8
2022-08-22T04:52:43.302Z,80.5
2022-08-22T04:53:59.423Z,80.3
2022-08-22T04:55:16.527Z,80.1
2022-08-22T04:56:33.631Z,79.9
2022-08-22T04:57:50.736Z,79.5
2022-08-22T04:59:07.840Z,78.8
2022-08-22T05:00:24.944Z,78
2022-08-22T05:01:42.049Z,77.5
2022-08-22T05:02:59.153Z,77.3
2022-08-22T05:04:16.257Z,77.3
2022-08-22T05:05:33.361Z,77.3
2022-08-22T05:06:50.466Z,77.3
2022-08-22T05:08:07.570Z,77.3
2022-08-22T05:09:24.674Z,77.3
2022-08-22T05:10:40.794Z,77.3
2022-08-22T05:11:57.899Z,77.3
2022-08-22T05:13:15.003Z,77.1
2022-08-22T05:14:32.107Z,77.3
2022-08-22T05:15:49.212Z,77.5
2022-08-22T05:17:06.316Z,75.2
2022-08-22T05:18:23.420Z,72.7
2022-08-22T05:19:40.524Z,70.7
2022-08-22T05:20:57.628Z,69.3
2022-08-22T05:22:14.732Z,68.8
2022-08-22T05:23:31.836Z,69.8
2022-08-22T05:24:48.940Z,69
2022-08-22T05:26:06.045Z,66.5
2022-08-22T05:27:22.165Z,64.8
2022-08-22T05:28:39.269Z,63.9
2022-08-22T05:29:56.373Z,64.3
2022-08-22T05:31:13.478Z,65.5
2022-08-22T05:32:30.582Z,66.1
2022-08-22T05:33:47.687Z,65.6
2022-08-22T05:35:04.790Z,65.1
2022-08-22T05:36:21.894Z,64.2
2022-08-22T05:37:38.998Z,63.3
2022-08-22T05:38:56.102Z,63.5
2022-08-22T05:40:13.206Z,63.5
2022-08-22T05:41:30.310Z,62.6
2022-08-22T05:42:47.414Z,62.6
2022-08-22T05:44:03.534Z,62.2
2022-08-22T05:45:20.639Z,62.3
2022-08-22T05:46:37.742Z,61.4
2022-08-22T05:47:54.846Z,61.1
2022-08-22T05:49:11.951Z,59.6
2022-08-22T05:50:29.055Z,58.2
2022-08-22T05:51:46.159Z,56.2
2022-08-22T05:53:03.264Z,54.8
2022-08-22T05:54:20.368Z,54.3
2022-08-22T05:55:37.472Z,53.6
2022-08-22T05:56:54.576Z,52.5
2022-08-22T05:58:11.680Z,52.6
2022-08-22T05:59:28.784Z,52.9
2022-08-22T06:00:44.904Z,53.5
2022-08-22T06:02:02.008Z,52.4
2022-08-22T06:03:19.113Z,52.7
2022-08-22T06:04:36.217Z,53.7
2022-08-22T06:05:53.321Z,53.9
2022-08-22T06:07:10.425Z,53.4
2022-08-22T06:08:27.529Z,54.5
2022-08-22T06:09:44.633Z,55
2022-08-22T06:11:01.737Z,55.8
2022-08-22T06:12:18.841Z,55
2022-08-22T06:13:35.945Z,53.8
2022-08-22T06:14:53.049Z,52.7
2022-08-22T06:16:10.153Z,53.9
2022-08-22T06:17:26.274Z,56.1
2022-08-22T06:18:43.378Z,57.6
2022-08-22T06:20:00.482Z,57.6
2022-08-22T06:21:17.586Z,58.4
2022-08-22T06:22:34.690Z,59.1
2022-08-22T06:23:51.794Z,59.8
2022-08-22T06:25:08.898Z,60
2022-08-22T06:26:26.003Z,60.9
2022-08-22T06:27:43.107Z,61.2
2022-08-22T06:29:00.211Z,61.2
2022-08-22T06:30:17.315Z,60.4
2022-08-22T06:31:34.419Z,59.9
2022-08-22T06:32:51.523Z,59.5
2022-08-22T06:34:07.643Z,59.6
2022-08-22T06:35:24.747Z,59.6
2022-08-22T06:36:41.851Z,59.3
2022-08-22T06:37:58.956Z,57.9
2022-08-22T06:39:16.060Z,56
2022-08-22T06:40:33.164Z,55.6
2022-08-22T06:41:50.268Z,53.3
2022-08-22T06:43:07.372Z,51.5
2022-08-22T06:44:24.476Z,50.7
2022-08-22T06:45:41.580Z,50.5
2022-08-22T06:46:58.684Z,50.6
2022-08-22T06:48:15.789Z,50.6
2022-08-22T06:49:32.893Z,50.9
2022-08-22T06:50:49.013Z,50.4
2022-08-22T06:52:06.117Z,49.9
2022-08-22T06:53:23.222Z,50.4
2022-08-22T06:54:40.326Z,50.5
2022-08-22T06:55:57.430Z,50.4
2022-08-22T06:57:14.535Z,51.1
2022-08-22T06:58:31.639Z,50.5
2022-08-22T06:59:48.744Z,50
2022-08-22T07:01:05.848Z,49.8
2022-08-22T07:02:22.953Z,49.3
2022-08-22T07:03:40.056Z,48.7
2022-08-22T07:04:57.160Z,48.3
2022-08-22T07:06:14.264Z,47.4
2022-08-22T07:07:30.384Z,47.3
2022-08-22T07:08:47.489Z,46.2
2022-08-22T07:10:04.593Z,45.3
2022-08-22T07:11:21.698Z,44.4
2022-08-22T07:12:38.802Z,44.2
2022-08-22T07:13:55.907Z,43
2022-08-22T07:15:13.011Z,42.3
2022-08-22T07:16:30.116Z,41
2022-08-22T07:17:47.220Z,39.9
2022-08-22T07:19:04.325Z,40.4
2022-08-22T07:20:21.429Z,40.9
2022-08-22T07:21:38.534Z,41.8
2022-08-22T07:22:55.638Z,42
2022-08-22T07:24:11.759Z,41.9
2022-08-22T07:25:28.864Z,41.5
2022-08-22T07:26:45.969Z,42.1
2022-08-22T07:28:03.073Z,42.6
2022-08-22T07:29:20.178Z,43
2022-08-22T07:30:37.283Z,42.4
2022-08-22T07:31:54.388Z,42.1
2022-08-22T07:33:11.492Z,41.4
2022-08-22T07:34:28.597Z,41.4
2022-08-22T07:35:45.702Z,42.7
2022-08-22T07:37:02.806Z,43.4
2022-08-22T07:38:19.911Z,43
2022-08-22T07:39:37.016Z,42.9
2022-08-22T07:40:53.136Z,42.3
2022-08-22T07:42:10.241Z,41.9
2022-08-22T07:43:27.346Z,41.7
2022-08-22T07:44:44.452Z,42.3
2022-08-22T07:46:01.556Z,43.1
2022-08-22T07:47:18.661Z,43.1
2022-08-22T07:48:35.766Z,43.2
2022-08-22T07:49:52.871Z,43.3
2022-08-22T07:51:09.976Z,42.5
2022-08-22T07:52:27.081Z,42.5
2022-08-22T07:53:44.186Z,43.1
2022-08-22T07:55:01.290Z,43.1
2022-08-22T07:56:18.395Z,43.1
2022-08-22T07:57:34.516Z,42.8
2022-08-22T07:58:51.621Z,43.1
2022-08-22T08:00:08.726Z,43.8
2022-08-22T08:01:25.830Z,43.7
2022-08-22T08:02:42.935Z,43.9
2022-08-22T08:04:00.040Z,43.4
2022-08-22T08:05:16.161Z,43.1
2022-08-22T08:06:33.265Z,43
2022-08-22T08:07:50.370Z,43.3
2022-08-22T08:09:07.475Z,44
2022-08-22T08:10:24.580Z,43.7
2022-08-22T08:11:41.684Z,43.1
2022-08-22T08:12:58.789Z,42.4
2022-08-22T08:14:15.894Z,41.6
2022-08-22T08:15:32.998Z,41.1
2022-08-22T08:16:50.103Z,41.5
2022-08-22T08:18:07.207Z,40.6
2022-08-22T08:19:24.312Z,39.8
2022-08-22T08:20:41.417Z,39.3
2022-08-22T08:21:57.538Z,39.3
2022-08-22T08:23:14.642Z,38.8
2022-08-22T08:24:31.747Z,38.4
2022-08-22T08:25:48.852Z,37.5
2022-08-22T08:27:05.957Z,36.7
2022-08-22T08:28:23.062Z,36.2
2022-08-22T08:29:40.167Z,36.1
2022-08-22T08:30:57.272Z,35.6
2022-08-22T08:32:14.377Z,36
2022-08-22T08:33:31.482Z,35.6
2022-08-22T08:34:48.587Z,35
2022-08-22T08:36:05.692Z,34.6
2022-08-22T08:37:22.797Z,33.7
2022-08-22T08:38:38.918Z,33.7
2022-08-22T08:39:56.023Z,34.4
2022-08-22T08:41:13.128Z,35.9
2022-08-22T08:42:30.233Z,36.8
2022-08-22T08:43:47.338Z,36.4
2022-08-22T08:45:04.443Z,36.7
2022-08-22T08:46:21.548Z,36.7
2022-08-22T08:47:38.651Z,36.7
2022-08-22T08:48:55.756Z,36.9
2022-08-22T08:50:12.861Z,36.8
2022-08-22T08:51:29.966Z,37
2022-08-22T08:52:47.071Z,37.2
2022-08-22T08:54:04.176Z,36.9
2022-08-22T08:55:20.297Z,36.8
2022-08-22T08:56:37.402Z,37
2022-08-22T08:57:54.507Z,36.7
2022-08-22T08:59:11.612Z,36.6
2022-08-22T09:00:28.717Z,37.1
2022-08-22T09:01:45.822Z,37.5
2022-08-22T09:03:02.927Z,37.5
2022-08-22T09:04:20.031Z,37.6
2022-08-22T09:05:37.137Z,37.5
2022-08-22T09:06:54.242Z,37.3
2022-08-22T09:08:11.346Z,37.9
2022-08-22T09:09:28.451Z,39.2
2022-08-22T09:10:45.556Z,39.6
2022-08-22T09:12:01.677Z,39.9
2022-08-22T09:13:18.782Z,39.1
2022-08-22T09:14:35.887Z,38.4
2022-08-22T09:15:52.992Z,38.2
2022-08-22T09:17:10.097Z,38
2022-08-22T09:18:27.202Z,37.6
2022-08-22T09:19:44.307Z,37.6
2022-08-22T09:21:01.411Z,37.5
2022-08-22T09:22:18.516Z,37.2
2022-08-22T09:23:35.621Z,36.9
2022-08-22T09:24:52.727Z,37
2022-08-22T09:26:09.832Z,37.1
2022-08-22T09:27:26.937Z,37
2022-08-22T09:28:43.058Z,36.3
2022-08-22T09:30:00.163Z,35.9
2022-08-22T09:31:17.268Z,36.3
2022-08-22T09:32:34.373Z,37.2
2022-08-22T09:33:51.478Z,37.7
2022-08-22T09:35:08.582Z,37.8
2022-08-22T09:36:25.687Z,37.6
2022-08-22T09:37:42.792Z,37.5
2022-08-22T09:38:59.898Z,37.8
2022-08-22T09:40:17.003Z,38.2
2022-08-22T09:41:34.108Z,38.5
2022-08-22T09:42:51.213Z,39.3
2022-08-22T09:44:08.318Z,39.2
2022-08-22T09:45:24.439Z,38.6
2022-08-22T09:46:41.544Z,38.6
2022-08-22T09:47:58.649Z,37.5
2022-08-22T09:49:15.753Z,38.3
2022-08-22T09:50:32.858Z,38.1
2022-08-22T09:51:49.963Z,37.7
2022-08-22T09:53:07.067Z,37.5
2022-08-22T09:54:24.172Z,37.4
2022-08-22T09:55:41.277Z,37.4
2022-08-22T09:56:58.381Z,36.9
2022-08-22T09:58:15.486Z,36.4
2022-08-22T09:59:32.590Z,36.5
2022-08-22T10:00:49.695Z,36.9
2022-08-22T10:02:05.816Z,37
2022-08-22T10:03:22.920Z,37
2022-08-22T10:04:40.025Z,36.7
2022-08-22T10:05:57.129Z,36.6
2022-08-22T10:07:14.234Z,36.5
2022-08-22T10:08:31.338Z,35.6
2022-08-22T10:09:48.443Z,35.8
2022-08-22T10:11:05.548Z,35.9
2022-08-22T10:12:22.653Z,35.8
2022-08-22T10:13:39.757Z,35.9
2022-08-22T10:14:56.862Z,35.5
2022-08-22T10:16:13.966Z,35.6
2022-08-22T10:17:31.071Z,35.7
2022-08-22T10:18:47.192Z,35.8
2022-08-22T10:20:04.296Z,35.9
2022-08-22T10:21:21.401Z,36.2
2022-08-22T10:22:38.506Z,36.2
2022-08-22T10:23:55.610Z,36.3
2022-08-22T10:25:12.715Z,36.4
2022-08-22T10:26:29.820Z,36.1
2022-08-22T10:27:46.924Z,36.3
2022-08-22T10:29:04.029Z,36.4
2022-08-22T10:30:21.133Z,36.5
2022-08-22T10:31:38.238Z,36.6
2022-08-22T10:32:55.342Z,36.8
2022-08-22T10:34:12.447Z,36.9
2022-08-22T10:35:28.568Z,37.4
2022-08-22T10:36:45.672Z,37.6
2022-08-22T10:38:02.776Z,37.7
2022-08-22T10:39:19.881Z,37.3
2022-08-22T10:40:36.985Z,37.6
2022-08-22T10:41:54.089Z,37.7
2022-08-22T10:43:11.194Z,37.7
2022-08-22T10:44:28.298Z,37.8
2022-08-22T10:45:45.403Z,38
2022-08-22T10:47:02.507Z,38.6
2022-08-22T10:48:19.611Z,38.9
2022-08-22T10:49:36.715Z,38.8
2022-08-22T10:50:53.820Z,38.8
2022-08-22T10:52:09.940Z,39
2022-08-22T10:53:27.045Z,39
2022-08-22T10:54:44.149Z,38.8
2022-08-22T10:56:01.253Z,38.9
2022-08-22T10:57:18.358Z,38.8
2022-08-22T10:58:35.463Z,38.8
2022-08-22T10:59:52.568Z,39.2
2022-08-22T11:01:09.672Z,39.8
2022-08-22T11:02:26.776Z,39.9
2022-08-22T11:03:43.881Z,39.9
2022-08-22T11:05:00.985Z,39.5
2022-08-22T11:06:18.089Z,39.5
2022-08-22T11:07:35.195Z,39.4
2022-08-22T11:08:51.315Z,39.5
2022-08-22T11:10:08.419Z,39.6
2022-08-22T11:11:25.524Z,39.2
2022-08-22T11:12:42.628Z,39.5
2022-08-22T11:13:59.732Z,39.5
2022-08-22T11:15:16.836Z,39.5
2022-08-22T11:16:33.940Z,39.6
2022-08-22T11:17:51.045Z,39.6
2022-08-22T11:19:08.149Z,39.3
2022-08-22T11:20:25.253Z,39.4
2022-08-22T11:21:42.357Z,39.3
2022-08-22T11:22:59.462Z,39.4
2022-08-22T11:24:16.566Z,39.7
2022-08-22T11:25:32.686Z,39.7
2022-08-22T11:26:49.790Z,39.3
2022-08-22T11:28:06.895Z,39
2022-08-22T11:29:23.999Z,39.1
2022-08-22T11:30:41.103Z,39.2
2022-08-22T11:31:58.207Z,39.6
2022-08-22T11:33:15.311Z,39.9
2022-08-22T11:34:32.416Z,39.9
2022-08-22T11:35:49.520Z,39.6
2022-08-22T11:37:06.624Z,39.5
2022-08-22T11:38:23.729Z,39.5
2022-08-22T11:39:40.833Z,40.5
2022-08-22T11:40:57.938Z,40.9
2022-08-22T11:42:14.058Z,40.9
2022-08-22T11:43:31.162Z,40.9
2022-08-22T11:44:48.266Z,40.9
2022-08-22T11:46:05.370Z,40.9
2022-08-22T11:47:22.475Z,40.7
2022-08-22T11:48:39.579Z,40.9
2022-08-22T11:49:56.683Z,40.7
2022-08-22T11:51:13.786Z,41
2022-08-22T11:52:30.890Z,41.2
2022-08-22T11:53:47.994Z,41.3
2022-08-22T11:55:05.098Z,40.9
2022-08-22T11:56:22.203Z,40
2022-08-22T11:57:39.307Z,39.8
2022-08-22T11:58:55.427Z,39.6
2022-08-22T12:00:12.533Z,39.8
2022-08-22T12:01:29.637Z,38.2
2022-08-22T12:02:46.742Z,38.2
2022-08-22T12:04:03.846Z,38.4
2022-08-22T12:05:20.951Z,38.7
2022-08-22T12:06:38.055Z,38.4
2022-08-22T12:07:55.159Z,38.7
2022-08-22T12:09:12.263Z,38.6
2022-08-22T12:10:29.367Z,38.3
2022-08-22T12:11:46.471Z,38.9
2022-08-22T12:13:03.575Z,38.3
2022-08-22T12:14:20.679Z,37.5
2022-08-22T12:15:36.799Z,37.3
2022-08-22T12:16:53.903Z,37.1
2022-08-22T12:18:11.007Z,36.8
2022-08-22T12:19:28.111Z,36.6
2022-08-22T12:20:45.214Z,36.5
2022-08-22T12:25:53.628Z,36.6
2022-08-22T12:27:09.764Z,35.6
2022-08-22T12:28:25.884Z,35.8
2022-08-22T12:29:42.010Z,36.1
2022-08-22T12:30:58.130Z,35.5
2022-08-22T12:33:32.338Z,35.6
2022-08-22T12:34:49.442Z,35.9
2022-08-22T12:36:06.546Z,35.8
2022-08-22T12:37:23.650Z,35.9
2022-08-22T12:38:40.755Z,35.5
2022-08-22T12:39:57.859Z,35.8
2022-08-22T12:41:14.963Z,35.3
2022-08-22T12:42:32.068Z,36
2022-08-22T12:43:49.172Z,36.3
2022-08-22T12:45:06.276Z,36.1
2022-08-22T12:46:23.380Z,36.3
2022-08-22T12:47:39.501Z,35.9
2022-08-22T12:48:56.605Z,35.9
2022-08-22T12:50:13.709Z,36.2
2022-08-22T12:51:30.813Z,36
2022-08-22T12:52:47.918Z,35.2
2022-08-22T12:54:05.022Z,35.9
2022-08-22T12:55:22.127Z,34.6
2022-08-22T12:56:39.231Z,34.7
2022-08-22T12:57:55.356Z,34.4
2022-08-22T12:59:11.477Z,34.4
2022-08-22T13:00:27.603Z,35.2
2022-08-22T13:01:43.723Z,34.4
2022-08-22T13:02:59.849Z,33.9
2022-08-22T13:04:15.969Z,34.1
2022-08-22T13:05:33.073Z,33.9
2022-08-22T13:06:50.178Z,33.6
2022-08-22T13:08:07.282Z,33.4
2022-08-22T13:09:24.386Z,32.8
2022-08-22T13:10:41.491Z,33.2
2022-08-22T13:11:58.595Z,33.1
2022-08-22T13:13:15.699Z,33.2
2022-08-22T13:14:32.804Z,33.1
2022-08-22T13:15:49.908Z,33.5
2022-08-22T13:17:07.012Z,34.1
2022-08-22T13:18:24.117Z,32.9
2022-08-22T13:19:41.221Z,33.1
2022-08-22T13:20:57.342Z,33.7
2022-08-22T13:22:14.446Z,33.6
2022-08-22T13:23:31.551Z,33.4
2022-08-22T13:24:48.655Z,33.3
2022-08-22T13:26:05.759Z,33.6
2022-08-22T13:27:22.863Z,32.9
2022-08-22T13:28:39.968Z,32.7
2022-08-22T13:29:57.214Z,33
2022-08-22T13:31:13.335Z,33.2
2022-08-22T13:32:30.439Z,32.4
2022-08-22T13:33:47.543Z,32.8
2022-08-22T13:35:04.648Z,32.5
2022-08-22T13:36:21.752Z,32
2022-08-22T13:37:38.857Z,31.1
2022-08-22T13:38:55.961Z,31.3
2022-08-22T13:40:13.066Z,31.8
2022-08-22T13:41:30.170Z,32
2022-08-22T13:42:47.274Z,30.9
2022-08-22T13:44:04.379Z,31.5
2022-08-22T13:45:21.484Z,32.6
2022-08-22T13:46:38.588Z,31.8
2022-08-22T13:47:54.709Z,32.9
2022-08-22T13:49:11.813Z,32.7
2022-08-22T13:50:28.919Z,32.4
2022-08-22T13:51:46.023Z,32.8
2022-08-22T13:53:03.127Z,33
2022-08-22T13:54:20.232Z,32.7
2022-08-22T13:55:37.334Z,32.2
2022-08-22T13:56:53.460Z,33.1
2022-08-22T13:58:09.581Z,32.8
2022-08-22T13:59:26.686Z,33
2022-08-22T14:00:43.791Z,33.4
2022-08-22T14:02:00.895Z,33.3
2022-08-22T14:03:18.000Z,33.3
2022-08-22T14:04:35.104Z,32.6
2022-08-22T14:05:52.208Z,33.1
2022-08-22T14:07:09.313Z,33.5
2022-08-22T14:08:26.417Z,33.3
2022-08-22T14:09:43.522Z,33.1
2022-08-22T14:11:00.626Z,33.2
2022-08-22T14:12:17.731Z,33.5
2022-08-22T14:13:34.835Z,33.2
2022-08-22T14:14:50.955Z,33.2
2022-08-22T14:16:08.060Z,33.9
2022-08-22T14:17:25.164Z,32.7
2022-08-22T14:18:42.269Z,32.7
2022-08-22T14:19:59.373Z,33.1
2022-08-22T14:21:16.478Z,32.1
2022-08-22T14:22:33.582Z,33.1
2022-08-22T14:23:50.686Z,32.6
2022-08-22T14:25:07.790Z,32.9
2022-08-22T14:26:24.895Z,33.5
2022-08-22T14:27:41.999Z,33.2
2022-08-22T14:28:59.103Z,33.2
2022-08-22T14:30:16.207Z,33.3
2022-08-22T14:31:32.328Z,33.5
2022-08-22T14:34:06.537Z,32.5
2022-08-22T14:35:23.642Z,32.6
2022-08-22T14:36:40.746Z,32.8
2022-08-22T14:37:57.851Z,32.6
2022-08-22T14:39:14.955Z,33.4
2022-08-22T14:40:32.059Z,32.5
2022-08-22T14:41:49.163Z,32.8
2022-08-22T14:43:06.268Z,33.2
2022-08-22T14:44:23.372Z,33.5
2022-08-22T14:45:40.476Z,34.1
2022-08-22T14:46:57.581Z,33.2
2022-08-22T14:48:13.701Z,33.3
2022-08-22T14:49:30.805Z,33.3
2022-08-22T14:50:47.907Z,33.3
2022-08-22T14:52:05.011Z,33.1
2022-08-22T14:53:22.115Z,33
2022-08-22T14:54:39.219Z,33.2
2022-08-22T14:55:56.323Z,33.7
2022-08-22T14:57:13.427Z,33.8
2022-08-22T14:58:30.532Z,33.9
2022-08-22T14:59:47.636Z,34.1
2022-08-22T15:01:04.740Z,34.2
2022-08-22T15:02:21.843Z,34.3
2022-08-22T15:03:38.947Z,34.5
2022-08-22T15:04:55.067Z,35
2022-08-22T15:06:12.171Z,34.9
2022-08-22T15:07:29.275Z,35.4
2022-08-22T15:08:46.380Z,35.2
2022-08-22T15:10:03.484Z,35.4
2022-08-22T15:11:20.589Z,35.6
2022-08-22T15:12:37.694Z,35.5
2022-08-22T15:13:54.798Z,35.6
2022-08-22T15:15:11.903Z,35.8
2022-08-22T15:16:29.008Z,35.9
2022-08-22T15:17:46.112Z,36
2022-08-22T15:19:03.217Z,36.2
2022-08-22T15:20:20.321Z,35.9
2022-08-22T15:21:36.441Z,36.5
2022-08-22T15:22:53.546Z,36.7
2022-08-22T15:24:10.650Z,36.3
2022-08-22T15:25:27.754Z,36.5
2022-08-22T15:26:44.858Z,36.3
2022-08-22T15:28:01.963Z,36.5
2022-08-22T15:29:19.067Z,36.8
2022-08-22T15:30:36.171Z,36.9
2022-08-22T15:31:53.275Z,37.1
2022-08-22T15:33:10.379Z,37.1
2022-08-22T15:34:27.483Z,37
2022-08-22T15:35:44.587Z,36.9
2022-08-22T15:37:01.691Z,37.4
2022-08-22T15:38:17.812Z,37.6
2022-08-22T15:39:34.916Z,37.4
2022-08-22T15:40:52.020Z,37.6
2022-08-22T15:42:09.124Z,37.9
2022-08-22T15:43:26.228Z,38
2022-08-22T15:44:43.332Z,37.9
2022-08-22T15:46:00.436Z,38.4
2022-08-22T15:47:17.540Z,38.5
2022-08-22T15:48:34.644Z,38.3
2022-08-22T15:49:51.749Z,38.3
2022-08-22T15:51:08.853Z,38.1
2022-08-22T15:52:25.957Z,37.9
2022-08-22T15:53:43.061Z,38
2022-08-22T15:54:59.181Z,38.2
2022-08-22T15:56:16.285Z,38.6
2022-08-22T15:57:33.389Z,38.7
2022-08-22T15:58:50.493Z,38.5
2022-08-22T16:00:07.597Z,38.5
2022-08-22T16:01:24.701Z,38.8
2022-08-22T16:02:41.805Z,38.6
2022-08-22T16:03:58.909Z,38.4
2022-08-22T16:05:16.013Z,38.7
2022-08-22T16:06:33.117Z,38.7
2022-08-22T16:07:50.221Z,38.9
2022-08-22T16:09:07.325Z,39
2022-08-22T16:10:24.429Z,38.9
2022-08-22T16:11:40.549Z,38.7
2022-08-22T16:12:57.653Z,38.7
2022-08-22T16:14:14.757Z,38.3
2022-08-22T16:15:31.861Z,37.9
2022-08-22T16:16:48.965Z,38
2022-08-22T16:18:06.069Z,38.5
2022-08-22T16:19:23.173Z,38.8
2022-08-22T16:20:40.277Z,39.3
2022-08-22T16:21:57.381Z,39.3
2022-08-22T16:24:31.589Z,39.4
2022-08-22T16:25:48.693Z,39.5
2022-08-22T16:27:05.797Z,39.7
2022-08-22T16:28:21.918Z,39.2
2022-08-22T16:29:39.022Z,40
2022-08-22T16:30:56.126Z,40.1
2022-08-22T16:32:13.230Z,41
2022-08-22T16:33:30.334Z,44.7
2022-08-22T16:34:47.438Z,44.1
2022-08-22T16:36:04.542Z,44.3
2022-08-22T16:37:21.646Z,44.4
2022-08-22T16:38:38.750Z,43.7
2022-08-22T16:39:55.854Z,45.4
2022-08-22T16:41:12.958Z,43.6
2022-08-22T16:42:30.062Z,43.6
2022-08-22T16:43:47.166Z,43.7
2022-08-22T16:45:03.286Z,43.4
2022-08-22T16:46:20.391Z,43.6
2022-08-22T16:47:37.495Z,43.6
2022-08-22T16:48:54.599Z,43.6
2022-08-22T16:50:11.703Z,44.1
2022-08-22T16:51:28.807Z,44.5
2022-08-22T16:52:45.912Z,44.7
2022-08-22T16:54:03.016Z,44.9
2022-08-22T16:55:20.120Z,45.1
2022-08-22T16:56:37.224Z,45.5
2022-08-22T16:57:54.330Z,45.4
2022-08-22T16:59:11.434Z,45.6
2022-08-22T17:00:28.538Z,45.6
2022-08-22T17:01:44.658Z,45.7
2022-08-22T17:03:01.762Z,45.8
2022-08-22T17:04:18.866Z,45.8
2022-08-22T17:05:35.971Z,45.9
2022-08-22T17:06:53.075Z,46.1
2022-08-22T17:08:10.179Z,46.2
2022-08-22T17:09:27.281Z,46.3
2022-08-22T17:10:44.386Z,46.3
2022-08-22T17:12:01.490Z,46.5
2022-08-22T17:13:18.594Z,46.7
2022-08-22T17:14:35.698Z,46.9
2022-08-22T17:15:52.802Z,46.9
2022-08-22T17:17:09.906Z,47.1